Diretta Meteo Beijing, Cinavenerdì 23 agosto ore 13:00

Mappa
Sereno 30 °C Sereno 24 Ore: T.min 16 T.max 31
Ponente Nord Km/h 7.2 Punto di rugiada: 13 °C Umidità: 35% Visibilità: 10 Km
Il sole sorge alle: 05:32 Il sole tramonta alle: 19:02
23 Agosto 2019 13:00 tempo osservato: Sereno Sereno 30 35 1011 vento: Nord N 7.2
23 Agosto 2019 12:30 tempo osservato: Sereno Sereno 31 31 1012 vento: Nord N/NE 10.8
23 Agosto 2019 12:00 tempo osservato: Sereno Sereno 31 33 1012 vento: Nord N 14.4
23 Agosto 2019 11:30 tempo osservato: Sereno Sereno 29 39 1012 vento: Nord N 10.8
23 Agosto 2019 11:00 tempo osservato: Sereno Sereno 28 39 1012 vento: Nord N 14.4
23 Agosto 2019 10:30 tempo osservato: Sereno Sereno 29 37 1013 vento: Nord N 14.4
23 Agosto 2019 10:00 tempo osservato: Sereno Sereno 28 39 1013 vento: Nord O/NO 10.8
23 Agosto 2019 09:30 tempo osservato: Sereno Sereno 27 39 1013 vento: Nord N/NO 14.4
23 Agosto 2019 09:00 tempo osservato: Sereno Sereno 25 50 1013 vento: Nord N 10.8
23 Agosto 2019 08:30 tempo osservato: Sereno Sereno 25 50 1013 vento: Nord N 10.8
23 Agosto 2019 08:00 tempo osservato: Sereno Sereno 23 64 1013 vento: Nord N 7.2
23 Agosto 2019 07:30 tempo osservato: Sereno Sereno 23 60 1013 vento: Nord N/NO 10.8
23 Agosto 2019 07:00 tempo osservato: Sereno Sereno 21 73 1013 vento: Nord N 7.2
23 Agosto 2019 06:30 tempo osservato: Sereno Sereno 19 77 1013 vento: Nord N 7.2
23 Agosto 2019 06:00 tempo osservato: Sereno Sereno 17 88 1012 vento: Nord N 7.2
23 Agosto 2019 05:30 tempo osservato: Sereno Sereno 17 88 1012 vento: Nord N 14.4
23 Agosto 2019 05:00 tempo osservato: Sereno Sereno 16 93 1012 vento: Nord N/NO 10.8
23 Agosto 2019 04:30 tempo osservato: Sereno Sereno 16 93 1012 vento: Nord N 7.2
23 Agosto 2019 04:00 tempo osservato: Sereno Sereno 17 88 1011 vento: Nord N 7.2
23 Agosto 2019 03:30 tempo osservato: Sereno Sereno 17 88 1011 vento: Nord N 7.2
23 Agosto 2019 03:00 tempo osservato: Sereno Sereno 17 93 1011 vento: Nord N 10.8
23 Agosto 2019 02:30 tempo osservato: Sereno Sereno 17 88 1011 vento: Nord N 10.8
23 Agosto 2019 02:00 tempo osservato: Sereno Sereno 18 88 1011 vento: Nord N 3.6
23 Agosto 2019 01:30 tempo osservato: Sereno Sereno 17 93 1011 vento: Nord N 3.6
23 Agosto 2019 01:00 tempo osservato: Sereno Sereno 17 93 1011 vento: Nord N 7.2
23 Agosto 2019 00:30 tempo osservato: Sereno Sereno 17 88 1011 vento: Nord N 3.6
23 Agosto 2019 00:00 tempo osservato: Sereno Sereno 18 88 1011 vento: Nord N 3.6
22 Agosto 2019 23:30 tempo osservato: Sereno Sereno 18 88 1010 vento: Nord N 10.8
22 Agosto 2019 23:00 tempo osservato: Sereno Sereno 18 88 1010 vento: Nord N 3.6
22 Agosto 2019 22:30 tempo osservato: Sereno Sereno 18 93 1010 vento: Nord N 7.2
22 Agosto 2019 22:00 tempo osservato: Sereno Sereno 20 77 1010 vento: Nord N 3.6
22 Agosto 2019 21:30 tempo osservato: Sereno Sereno 19 82 1010 vento: Nord N 3.6
22 Agosto 2019 21:00 tempo osservato: Sereno Sereno 19 88 1010 vento: Nord N 3.6
22 Agosto 2019 20:30 tempo osservato: Sereno Sereno 20 82 1010 vento: Nord N 3.6
22 Agosto 2019 20:00 tempo osservato: Sereno Sereno 20 82 1009 vento: Nord N 3.6
22 Agosto 2019 19:30 tempo osservato: Sereno Sereno 22 73 1009 vento: Nord N 7.2
22 Agosto 2019 19:00 tempo osservato: Sereno Sereno 22 73 1009 vento: Nord N 3.6
22 Agosto 2019 18:30 tempo osservato: Sereno Sereno 29 37 1008 vento: Nord N 7.2
22 Agosto 2019 18:00 tempo osservato: Sereno Sereno 30 33 1008 vento: Nord N 7.2
22 Agosto 2019 17:30 tempo osservato: Sereno Sereno 31 29 1008 vento: Nord O 10.8
22 Agosto 2019 17:00 tempo osservato: Sereno Sereno 30 30 1009 vento: Nord O 14.4
22 Agosto 2019 16:30 tempo osservato: Sereno Sereno 31 29 1009 vento: Nord O/NO 18
22 Agosto 2019 16:00 tempo osservato: Sereno Sereno 31 29 1009 vento: Nord O 18
22 Agosto 2019 15:30 tempo osservato: Sereno Sereno 30 30 1009 vento: Nord O 21.6
22 Agosto 2019 15:00 tempo osservato: Sereno Sereno 30 33 1009 vento: Nord O 21.6
22 Agosto 2019 14:30 tempo osservato: Sereno Sereno 30 30 1009 vento: Nord O/NO 18
22 Agosto 2019 14:00 tempo osservato: Sereno Sereno 29 32 1010 vento: Nord O/NO 18